Kiyose, Japan

5:54 PM JST on August 22, 2014 (GMT +0900)
Sakae | Change Station
CLOSE
Current Station
Personal Weather Station
Location: Niiza City, SAITAMA PRE.
Elevation: 141 ft
Nearby Weather Stations

Elev 141 ft 35.78 °N, 139.58 °E | Updated 35 minutes ago

Partly Cloudy
Partly Cloudy
92.2 °F
Feels Like 102 °F
N
4.5
Wind Variable Wind from SSE
Gusts 4.7 mph

Today
High -- | Low -- °F
--% Chance of Precip.
Yesterday
High -- | Low -- °F
Precip. -- in
5:05 AM 6:23 PM
Waning Crescent, 9% visible
Pressure 29.77 in
Visibility 6.2 miles
Clouds Few 3500 ft
Few 4000 ft
Heat Index 102 °F
Dew Point 74 °F
Humidity 55%
Rainfall 0.00 in
Snow Depth Not available.
UV 1 out of 12
Pollen Not available.
Air Quality Not available.
Flu Activity Not available.
METAR RJTF 220800Z 17009KT 9999 FEW035 FEW040CB SCT/// 32/22 Q1008

More Conditions Fewer Conditions

Pressure 29.77 in
Visibility 6.2 miles
Clouds Few 3500 ft
Few 4000 ft
Heat Index 102 °F
Dew Point 74 °F
Humidity 55%
Rainfall 0.00 in
Snow Depth Not available.
UV 1 out of 12
Pollen Not available.
Air Quality Not available.
Flu Activity Not available.
METAR RJTF 220800Z 17009KT 9999 FEW035 FEW040CB SCT/// 32/22 Q1008

More Conditions Fewer Conditions

10-Day Weather Forecast

Almanac

Astronomy

Aug. 22, 2014 Rise Set
Actual Time 5:05 AM JST 6:23 PM JST
Civil Twilight 4:38 AM JST 6:50 PM JST
Nautical Twilight 4:07 AM JST 7:21 PM JST
Astronomical Twilight 3:33 AM JST 7:55 PM JST
Moon 1:57 AM JST 4:04 PM JST
Length of Visible Light 14h 11m
Length of Day
13h 17m
Tomorrow will be 2m 3s shorter.
Waning Crescent, 9% of the Moon is Illuminated
Today
Waning Crescent
Aug 25
New
Sep 2
First Quarter
Sep 8
Full
Sep 15
Last Quarter

Yesterday's Extremes

Country Highs Country Lows

Community

WunderPhotos

Upload Photos

1,746,144 photos uploaded!

Nearby

Snow Depth

Not available.

Earthquake Activity

City Distance Mag. Time & Date
No recent earthquake activity has been reported nearby.
Minimum magnitude displayed is 2.5.

Coastal Water Temperatures

Place Temperature
No Stations Reporting

Nearby Weather Stations